createdAt,value
2018-06-30T00:01:27.812Z,102055.25
2018-06-30T00:03:57.905Z,102060.63
2018-06-30T00:06:28.017Z,102064.23
2018-06-30T00:08:57.786Z,102069.56
2018-06-30T00:11:27.346Z,102062.53
2018-06-30T00:13:56.896Z,102070.56
2018-06-30T00:16:26.611Z,102071.07
2018-06-30T00:18:55.954Z,102081.73
2018-06-30T00:21:25.345Z,102073.31
2018-06-30T00:23:54.759Z,102072.53
2018-06-30T00:26:23.945Z,102075.65
2018-06-30T00:28:53.441Z,102068.61
2018-06-30T00:31:22.897Z,102072.15
2018-06-30T00:33:52.093Z,102081.47
2018-06-30T00:36:21.598Z,102079.28
2018-06-30T00:38:51.059Z,102074.94
2018-06-30T00:41:20.321Z,102076.73
2018-06-30T00:43:49.837Z,102084.70
2018-06-30T00:46:19.285Z,102075.41
2018-06-30T00:48:48.621Z,102075.43
2018-06-30T00:51:17.986Z,102081.67
2018-06-30T00:53:47.379Z,102085.27
2018-06-30T00:56:16.564Z,102082.61
2018-06-30T00:58:46.061Z,102085.75
2018-06-30T01:01:15.236Z,102081.77
2018-06-30T01:03:44.584Z,102082.67
2018-06-30T01:06:13.982Z,102079.57
2018-06-30T01:08:43.196Z,102078.25
2018-06-30T01:11:12.437Z,102083.20
2018-06-30T01:13:42.536Z,102073.06
2018-06-30T01:16:11.900Z,102077.08
2018-06-30T01:18:41.045Z,102074.02
2018-06-30T01:21:10.364Z,102074.93
2018-06-30T01:23:40.160Z,102076.66
2018-06-30T01:26:09.462Z,102088.17
2018-06-30T01:28:38.977Z,102092.62
2018-06-30T01:31:08.689Z,102082.41
2018-06-30T01:33:38.021Z,102089.93
2018-06-30T01:36:07.713Z,102093.55
2018-06-30T01:38:37.380Z,102094.01
2018-06-30T01:41:06.750Z,102099.33
2018-06-30T01:43:36.372Z,102097.18
2018-06-30T01:46:05.673Z,102103.41
2018-06-30T01:48:35.160Z,102102.08
2018-06-30T01:51:04.780Z,102109.59
2018-06-30T01:53:33.956Z,102110.50
2018-06-30T01:56:03.361Z,102112.73
2018-06-30T01:58:32.704Z,102113.15
2018-06-30T02:01:01.810Z,102111.41
2018-06-30T02:03:31.309Z,102112.28
2018-06-30T02:06:00.828Z,102109.62
2018-06-30T02:08:29.940Z,102116.70
2018-06-30T02:10:59.413Z,102121.14
2018-06-30T02:13:28.928Z,102120.69
2018-06-30T02:15:59.292Z,102122.01
2018-06-30T02:18:29.166Z,102115.38
2018-06-30T02:20:58.685Z,102119.36
2018-06-30T02:23:27.935Z,102123.78
2018-06-30T02:25:57.485Z,102129.09
2018-06-30T02:28:26.863Z,102125.15
2018-06-30T02:30:56.112Z,102104.37
2018-06-30T02:33:25.466Z,102125.58
2018-06-30T02:35:54.716Z,102124.68
2018-06-30T02:38:23.859Z,102123.83
2018-06-30T02:40:53.281Z,101894.67
2018-06-30T02:43:22.962Z,102132.19
2018-06-30T02:45:52.187Z,102136.63
2018-06-30T02:48:21.545Z,102134.41
2018-06-30T02:50:50.744Z,102137.94
2018-06-30T02:53:19.964Z,102138.40
2018-06-30T02:55:49.501Z,102137.96
2018-06-30T02:58:19.202Z,102140.61
2018-06-30T03:00:48.440Z,102141.50
2018-06-30T03:03:17.939Z,102141.47
2018-06-30T03:05:47.803Z,102145.02
2018-06-30T03:08:17.107Z,102147.66
2018-06-30T03:10:46.264Z,102150.77
2018-06-30T03:13:16.012Z,102152.09
2018-06-30T03:15:45.588Z,102146.78
2018-06-30T03:18:14.965Z,102146.33
2018-06-30T03:20:44.362Z,102148.56
2018-06-30T03:23:13.696Z,102150.75
2018-06-30T03:25:42.932Z,102152.95
2018-06-30T03:28:12.352Z,102156.52
2018-06-30T03:30:41.722Z,102156.95
2018-06-30T03:33:10.891Z,102153.84
2018-06-30T03:35:40.359Z,102157.39
2018-06-30T03:38:09.754Z,102155.61
2018-06-30T03:40:38.928Z,102162.67
2018-06-30T03:43:08.279Z,102161.37
2018-06-30T03:45:37.851Z,102162.24
2018-06-30T03:48:07.390Z,102159.16
2018-06-30T03:50:36.532Z,102157.38
2018-06-30T03:53:05.943Z,102160.05
2018-06-30T03:55:35.127Z,102158.70
2018-06-30T03:58:04.608Z,102151.20
2018-06-30T04:00:33.852Z,102156.49
2018-06-30T04:03:03.035Z,102160.02
2018-06-30T04:05:32.438Z,102157.37
2018-06-30T04:08:01.683Z,102164.02
2018-06-30T04:10:31.127Z,102160.91
2018-06-30T04:13:00.344Z,102164.46
2018-06-30T04:15:29.578Z,102163.57
2018-06-30T04:17:59.518Z,102164.46
2018-06-30T04:20:28.955Z,102161.37
2018-06-30T04:22:58.118Z,102162.69
2018-06-30T04:25:27.941Z,102166.66
2018-06-30T04:27:57.058Z,102165.34
2018-06-30T04:30:26.203Z,102170.64
2018-06-30T04:32:56.044Z,102168.86
2018-06-30T04:35:25.431Z,102168.41
2018-06-30T04:37:54.677Z,102167.08
2018-06-30T04:40:24.580Z,102166.64
2018-06-30T04:42:54.039Z,102165.31
2018-06-30T04:45:23.307Z,102167.13
2018-06-30T04:47:52.820Z,102161.79
2018-06-30T04:50:22.018Z,102164.47
2018-06-30T04:52:51.188Z,102165.33
2018-06-30T04:55:20.711Z,102162.19
2018-06-30T04:57:50.274Z,102167.00
2018-06-30T05:00:19.454Z,102168.78
2018-06-30T05:02:49.030Z,102164.34
2018-06-30T05:05:18.093Z,102169.28
2018-06-30T05:07:47.402Z,102169.70
2018-06-30T05:10:16.953Z,102170.57
2018-06-30T05:12:46.335Z,102141.87
2018-06-30T05:15:15.479Z,102179.40
2018-06-30T05:17:45.009Z,102176.66
2018-06-30T05:20:14.201Z,102177.95
2018-06-30T05:22:43.539Z,102175.73
2018-06-30T05:25:12.991Z,102175.78
2018-06-30T05:27:42.367Z,102181.95
2018-06-30T05:30:11.609Z,102176.64
2018-06-30T05:32:41.185Z,102174.39
2018-06-30T05:35:10.741Z,102174.83
2018-06-30T05:37:40.032Z,102180.11
2018-06-30T05:40:09.467Z,102178.27
2018-06-30T05:42:38.846Z,102176.00
2018-06-30T05:45:07.926Z,102171.98
2018-06-30T05:47:37.323Z,102176.48
2018-06-30T05:50:06.782Z,102179.10
2018-06-30T05:52:36.053Z,102179.04
2018-06-30T05:55:05.719Z,102182.58
2018-06-30T05:57:35.397Z,102177.23
2018-06-30T06:00:04.846Z,102176.27
2018-06-30T06:02:34.551Z,102171.83
2018-06-30T06:05:04.229Z,102087.53
2018-06-30T06:07:33.835Z,102188.98
2018-06-30T06:10:03.501Z,102186.80
2018-06-30T06:12:33.085Z,102183.63
2018-06-30T06:15:04.198Z,102183.12
2018-06-30T06:17:34.929Z,102179.09
2018-06-30T06:20:04.796Z,102181.28
2018-06-30T06:22:34.796Z,102176.80
2018-06-30T06:25:04.637Z,102178.53
2018-06-30T06:27:34.535Z,102178.52
2018-06-30T06:30:04.823Z,102175.75
2018-06-30T06:32:35.001Z,102166.88
2018-06-30T06:35:04.686Z,102170.31
2018-06-30T06:37:34.294Z,102175.61
2018-06-30T06:40:03.804Z,102169.88
2018-06-30T06:42:33.678Z,102173.81
2018-06-30T06:45:02.857Z,102178.23
2018-06-30T06:47:32.961Z,102178.16
2018-06-30T06:50:02.452Z,102178.56
2018-06-30T06:52:32.055Z,102172.80
2018-06-30T06:55:01.813Z,102169.58
2018-06-30T06:57:31.603Z,102065.97
2018-06-30T07:00:01.173Z,102168.09
2018-06-30T07:02:30.670Z,102163.36
2018-06-30T07:05:00.285Z,102163.69
2018-06-30T07:07:29.378Z,102163.15
2018-06-30T07:09:58.705Z,102162.61
2018-06-30T07:12:28.335Z,102168.77
2018-06-30T07:14:57.889Z,102167.30
2018-06-30T07:17:27.245Z,102172.09
2018-06-30T07:19:56.915Z,102175.50
2018-06-30T07:22:26.535Z,102171.06
2018-06-30T07:24:56.163Z,102166.52
2018-06-30T07:27:25.926Z,102170.92
2018-06-30T07:29:55.715Z,102173.36
2018-06-30T07:32:25.066Z,102169.14
2018-06-30T07:34:54.436Z,102167.70
2018-06-30T07:37:23.868Z,102157.69
2018-06-30T07:39:53.140Z,102157.41
2018-06-30T07:42:22.489Z,102158.83
2018-06-30T07:44:51.790Z,102154.94
2018-06-30T07:47:21.277Z,102158.45
2018-06-30T07:49:50.481Z,102157.59
2018-06-30T07:52:20.196Z,102161.16
2018-06-30T07:54:49.908Z,102157.91
2018-06-30T07:57:19.265Z,102153.61
2018-06-30T07:59:48.982Z,102153.41
2018-06-30T08:02:18.550Z,102150.00
2018-06-30T08:04:48.268Z,102047.66
2018-06-30T08:07:17.767Z,102145.63
2018-06-30T08:09:47.577Z,102162.03
2018-06-30T08:12:17.470Z,102155.98
2018-06-30T08:14:46.616Z,102154.33
2018-06-30T08:17:16.253Z,102160.00
2018-06-30T08:19:45.585Z,102159.12
2018-06-30T08:22:14.735Z,102157.70
2018-06-30T08:24:44.780Z,102154.73
2018-06-30T08:27:14.692Z,102153.00
2018-06-30T08:29:44.356Z,102156.13
2018-06-30T08:32:14.543Z,102161.77
2018-06-30T08:34:44.353Z,102158.21
2018-06-30T08:37:13.982Z,102160.09
2018-06-30T08:39:43.857Z,102157.63
2018-06-30T08:42:13.893Z,102162.91
2018-06-30T08:44:43.795Z,102151.79
2018-06-30T08:47:14.768Z,102161.41
2018-06-30T08:49:44.517Z,102164.17
2018-06-30T08:52:14.515Z,102163.78
2018-06-30T08:54:44.619Z,102167.91
2018-06-30T08:57:14.205Z,102164.91
2018-06-30T08:59:44.237Z,102175.72
2018-06-30T09:02:14.033Z,102179.83
2018-06-30T09:04:43.686Z,102173.92
2018-06-30T09:07:13.264Z,102173.41
2018-06-30T09:09:42.956Z,102176.92
2018-06-30T09:12:12.155Z,102177.75
2018-06-30T09:14:41.956Z,102180.69
2018-06-30T09:17:11.766Z,102179.31
2018-06-30T09:19:41.284Z,102177.49
2018-06-30T09:22:10.758Z,102173.04
2018-06-30T09:24:41.095Z,102174.38
2018-06-30T09:27:11.312Z,102166.63
2018-06-30T09:29:41.145Z,102164.91
2018-06-30T09:32:10.589Z,102169.97
2018-06-30T09:34:40.089Z,102159.84
2018-06-30T09:37:10.210Z,102168.47
2018-06-30T09:39:39.773Z,102163.27
2018-06-30T09:42:09.345Z,102160.52
2018-06-30T09:44:39.449Z,102165.37
2018-06-30T09:47:09.014Z,102162.60
2018-06-30T09:49:38.912Z,102156.19
2018-06-30T09:52:08.651Z,102162.17
2018-06-30T09:54:38.137Z,102171.30
2018-06-30T09:57:07.893Z,102159.48
2018-06-30T09:59:37.584Z,102162.09
2018-06-30T10:02:07.040Z,102166.19
2018-06-30T10:04:37.315Z,102160.29
2018-06-30T10:07:07.315Z,102170.73
2018-06-30T10:09:37.120Z,102159.70
2018-06-30T10:12:06.474Z,102163.94
2018-06-30T10:14:36.211Z,102159.69
2018-06-30T10:17:05.976Z,102167.90
2018-06-30T10:19:35.755Z,102163.18
2018-06-30T10:22:05.231Z,102157.03
2018-06-30T10:24:34.917Z,102167.50
2018-06-30T10:27:05.180Z,102159.22
2018-06-30T10:29:34.890Z,102163.48
2018-06-30T10:32:04.454Z,102158.51
2018-06-30T10:34:33.944Z,102129.69
2018-06-30T10:37:03.877Z,102154.18
2018-06-30T10:39:33.605Z,102144.79
2018-06-30T10:42:02.943Z,102153.73
2018-06-30T10:44:32.636Z,102146.08
2018-06-30T10:47:02.548Z,102158.49
2018-06-30T10:49:32.050Z,102156.06
2018-06-30T10:52:01.629Z,102140.48
2018-06-30T10:54:30.818Z,102146.67
2018-06-30T10:57:00.032Z,102154.63
2018-06-30T10:59:29.606Z,102140.80
2018-06-30T11:01:58.925Z,102142.29
2018-06-30T11:04:28.417Z,102138.41
2018-06-30T11:06:58.658Z,102133.50
2018-06-30T11:09:28.296Z,102137.36
2018-06-30T11:11:57.851Z,102133.56
2018-06-30T11:14:27.451Z,102128.26
2018-06-30T11:16:57.213Z,102121.59
2018-06-30T11:19:27.473Z,102118.13
2018-06-30T11:21:57.532Z,102127.00
2018-06-30T11:24:27.552Z,102131.42
2018-06-30T11:26:57.327Z,102118.22
2018-06-30T11:29:27.012Z,102121.25
2018-06-30T11:31:56.838Z,102121.77
2018-06-30T11:34:26.460Z,102124.87
2018-06-30T11:36:56.174Z,102121.93
2018-06-30T11:39:25.733Z,102119.31
2018-06-30T11:41:55.370Z,102118.28
2018-06-30T11:44:25.717Z,102113.51
2018-06-30T11:46:55.216Z,102111.05
2018-06-30T11:49:24.908Z,102117.66
2018-06-30T11:51:54.612Z,102114.86
2018-06-30T11:54:24.183Z,102111.44
2018-06-30T11:56:53.796Z,102116.62
2018-06-30T11:59:23.406Z,102111.81
2018-06-30T12:01:52.879Z,102102.70
2018-06-30T12:04:22.988Z,102112.91
2018-06-30T12:06:52.808Z,102105.81
2018-06-30T12:09:22.497Z,102100.69
2018-06-30T12:11:52.423Z,102107.31
2018-06-30T12:14:22.488Z,102084.28
2018-06-30T12:16:52.298Z,102102.52
2018-06-30T12:19:22.186Z,102111.78
2018-06-30T12:21:51.974Z,102120.11
2018-06-30T12:24:21.655Z,102111.08
2018-06-30T12:26:51.167Z,102109.99
2018-06-30T12:29:20.839Z,102103.67
2018-06-30T12:31:50.347Z,102108.65
2018-06-30T12:34:20.042Z,102101.55
2018-06-30T12:36:49.763Z,102111.20
2018-06-30T12:39:19.271Z,102104.05
2018-06-30T12:41:48.914Z,102080.87
2018-06-30T12:44:18.558Z,102101.78
2018-06-30T12:46:47.942Z,102110.05
2018-06-30T12:49:17.570Z,102101.81
2018-06-30T12:51:47.228Z,102106.42
2018-06-30T12:54:16.862Z,102107.64
2018-06-30T12:56:46.695Z,102104.50
2018-06-30T12:59:16.364Z,102096.97
2018-06-30T13:01:45.798Z,102102.45
2018-06-30T13:04:15.497Z,102103.89
2018-06-30T13:06:45.280Z,102107.75
2018-06-30T13:09:14.810Z,101999.30
2018-06-30T13:11:44.584Z,102103.80
2018-06-30T13:14:14.179Z,102106.09
2018-06-30T13:16:43.687Z,102104.00
2018-06-30T13:19:13.285Z,102104.52
2018-06-30T13:21:42.585Z,102109.48
2018-06-30T13:24:12.134Z,102110.95
2018-06-30T13:26:41.774Z,102108.04
2018-06-30T13:29:11.570Z,102112.02
2018-06-30T13:31:41.048Z,102108.77
2018-06-30T13:34:10.856Z,102102.16
2018-06-30T13:36:40.553Z,102118.88
2018-06-30T13:39:13.125Z,102116.44
2018-06-30T13:41:42.979Z,102107.38
2018-06-30T13:44:13.261Z,102112.05
2018-06-30T13:46:42.656Z,102102.58
2018-06-30T13:49:12.262Z,102104.94
2018-06-30T13:51:41.927Z,102106.91
2018-06-30T13:54:11.377Z,102110.38
2018-06-30T13:56:41.092Z,102112.37
2018-06-30T13:59:11.554Z,102107.00
2018-06-30T14:01:41.057Z,102102.42
2018-06-30T14:04:11.089Z,102102.88
2018-06-30T14:09:10.724Z,102086.77
2018-06-30T14:11:40.506Z,102097.80
2018-06-30T14:14:10.706Z,102099.77
2018-06-30T14:16:40.289Z,102101.44
2018-06-30T14:19:10.063Z,102088.02
2018-06-30T14:21:39.686Z,102101.95
2018-06-30T14:24:09.254Z,102100.30
2018-06-30T14:26:39.169Z,102104.22
2018-06-30T14:29:08.807Z,102096.69
2018-06-30T14:31:38.797Z,102096.22
2018-06-30T14:34:08.539Z,102092.66
2018-06-30T14:36:38.060Z,102092.56
2018-06-30T14:39:11.494Z,102093.39
2018-06-30T14:41:40.967Z,102092.09
2018-06-30T14:44:10.878Z,102093.70
2018-06-30T14:46:40.734Z,102091.78
2018-06-30T14:49:10.650Z,102099.11
2018-06-30T14:51:40.432Z,102101.95
2018-06-30T14:54:10.091Z,102100.22
2018-06-30T14:56:39.984Z,102099.59
2018-06-30T14:59:10.624Z,102097.20
2018-06-30T15:01:40.612Z,102100.41
2018-06-30T15:04:10.472Z,102103.09
2018-06-30T15:06:40.059Z,102099.16
2018-06-30T15:09:16.651Z,102096.73
2018-06-30T15:11:46.636Z,102090.08
2018-06-30T15:14:16.452Z,102095.11
2018-06-30T15:16:46.044Z,102097.52
2018-06-30T15:19:15.833Z,102098.45
2018-06-30T15:21:45.458Z,102090.65
2018-06-30T15:24:15.214Z,102098.45
2018-06-30T15:26:45.210Z,102090.40
2018-06-30T15:29:14.914Z,102089.05
2018-06-30T15:31:44.520Z,102069.63
2018-06-30T15:34:14.701Z,102086.81
2018-06-30T15:36:44.552Z,102088.28
2018-06-30T15:39:14.249Z,102085.44
2018-06-30T15:41:44.122Z,102086.58
2018-06-30T15:44:13.944Z,102093.14
2018-06-30T15:46:43.604Z,102078.77
2018-06-30T15:49:13.468Z,102088.67
2018-06-30T15:51:43.580Z,102076.33
2018-06-30T15:54:13.048Z,102077.03
2018-06-30T15:56:43.151Z,102066.19
2018-06-30T15:59:12.834Z,102070.57
2018-06-30T16:01:42.592Z,102076.30
2018-06-30T16:04:12.709Z,102075.97
2018-06-30T16:06:42.164Z,102075.84
2018-06-30T16:09:12.357Z,102077.18
2018-06-30T16:11:42.414Z,102078.91
2018-06-30T16:14:13.144Z,102075.27
2018-06-30T16:16:42.573Z,102073.98
2018-06-30T16:19:12.421Z,102076.05
2018-06-30T16:21:41.889Z,102076.70
2018-06-30T16:24:11.652Z,102078.53
2018-06-30T16:26:41.158Z,102070.78
2018-06-30T16:29:10.728Z,102067.80
2018-06-30T16:31:40.603Z,102072.81
2018-06-30T16:34:10.396Z,102068.27
2018-06-30T16:36:39.755Z,102070.73
2018-06-30T16:39:10.952Z,102072.55
2018-06-30T16:41:40.820Z,102068.42
2018-06-30T16:44:10.291Z,102062.80
2018-06-30T16:46:39.897Z,102065.20
2018-06-30T16:49:09.866Z,102065.62
2018-06-30T16:51:39.593Z,102073.84
2018-06-30T16:54:09.047Z,102073.94
2018-06-30T16:56:38.823Z,102073.67
2018-06-30T16:59:08.579Z,102073.30
2018-06-30T17:01:38.182Z,102076.35
2018-06-30T17:04:08.272Z,102078.33
2018-06-30T17:06:37.727Z,102072.45
2018-06-30T17:09:10.656Z,102073.39
2018-06-30T17:11:40.376Z,102066.41
2018-06-30T17:14:10.781Z,102081.18
2018-06-30T17:16:41.058Z,102080.41
2018-06-30T17:19:10.749Z,102082.41
2018-06-30T17:21:40.201Z,102079.73
2018-06-30T17:24:10.036Z,102079.95
2018-06-30T17:26:39.416Z,102080.92
2018-06-30T17:29:09.187Z,102087.06
2018-06-30T17:31:39.642Z,102088.11
2018-06-30T17:34:09.231Z,102078.28
2018-06-30T17:36:38.972Z,102087.87
2018-06-30T17:39:10.383Z,102090.02
2018-06-30T17:41:40.876Z,102092.03
2018-06-30T17:44:10.598Z,102077.52
2018-06-30T17:46:40.424Z,102088.36
2018-06-30T17:49:10.061Z,102089.00
2018-06-30T17:51:39.776Z,102088.30
2018-06-30T17:54:10.062Z,102096.39
2018-06-30T17:56:39.586Z,102094.62
2018-06-30T17:59:09.522Z,102094.70
2018-06-30T18:01:39.541Z,102090.28
2018-06-30T18:04:09.075Z,102095.45
2018-06-30T18:06:38.861Z,102093.44
2018-06-30T18:09:10.156Z,102099.07
2018-06-30T18:11:40.072Z,102098.31
2018-06-30T18:14:10.116Z,102099.35
2018-06-30T18:16:39.485Z,102095.79
2018-06-30T18:19:09.134Z,102103.39
2018-06-30T18:21:38.808Z,102095.34
2018-06-30T18:24:08.402Z,102099.38
2018-06-30T18:26:37.998Z,102109.43
2018-06-30T18:29:07.692Z,102110.77
2018-06-30T18:31:37.280Z,102106.12
2018-06-30T18:34:07.144Z,102109.58
2018-06-30T18:36:36.972Z,102112.44
2018-06-30T18:39:09.763Z,102114.17
2018-06-30T18:41:39.857Z,102110.41
2018-06-30T18:44:09.389Z,102115.48
2018-06-30T18:46:39.233Z,102122.67
2018-06-30T18:49:08.963Z,102116.88
2018-06-30T18:51:38.569Z,102117.33
2018-06-30T18:54:09.002Z,102121.45
2018-06-30T18:56:38.477Z,102126.38
2018-06-30T18:59:07.930Z,102100.43
2018-06-30T19:01:37.588Z,102125.61
2018-06-30T19:04:07.546Z,102128.28
2018-06-30T19:06:37.243Z,102128.65
2018-06-30T19:09:08.746Z,102131.72
2018-06-30T19:11:38.472Z,102128.63
2018-06-30T19:14:08.711Z,102124.30
2018-06-30T19:16:38.546Z,102113.06
2018-06-30T19:19:08.145Z,102135.06
2018-06-30T19:21:37.905Z,102143.09
2018-06-30T19:24:07.443Z,102144.02
2018-06-30T19:26:37.464Z,102142.88
2018-06-30T19:29:06.971Z,102149.99
2018-06-30T19:31:37.038Z,102142.48
2018-06-30T19:34:06.913Z,102150.67
2018-06-30T19:36:38.380Z,102153.78
2018-06-30T19:39:11.771Z,102160.68
2018-06-30T19:41:41.621Z,102161.14
2018-06-30T19:44:11.509Z,102169.66
2018-06-30T19:46:41.227Z,102170.21
2018-06-30T19:49:10.927Z,102176.16
2018-06-30T19:51:40.854Z,102182.06
2018-06-30T19:54:12.116Z,102189.84
2018-06-30T19:56:43.257Z,102193.35
2018-06-30T19:59:12.432Z,102199.59
2018-06-30T20:01:42.052Z,102198.31
2018-06-30T20:04:11.461Z,102206.81
2018-06-30T20:06:40.691Z,102201.97
2018-06-30T20:09:10.342Z,102205.31
2018-06-30T20:11:40.315Z,102211.55
2018-06-30T20:14:09.966Z,102209.73
2018-06-30T20:16:39.670Z,102215.84
2018-06-30T20:19:09.231Z,102219.80
2018-06-30T20:21:39.006Z,102221.72
2018-06-30T20:24:08.742Z,102227.06
2018-06-30T20:26:38.312Z,102229.81
2018-06-30T20:29:07.864Z,102229.86
2018-06-30T20:31:37.489Z,102232.57
2018-06-30T20:34:07.235Z,102236.58
2018-06-30T20:36:36.891Z,102240.67
2018-06-30T20:39:08.616Z,102246.45
2018-06-30T20:41:38.687Z,102245.69
2018-06-30T20:44:08.716Z,102249.69
2018-06-30T20:46:38.606Z,102252.36
2018-06-30T20:49:08.409Z,102248.13
2018-06-30T20:51:38.323Z,102253.50
2018-06-30T20:54:08.151Z,102255.36
2018-06-30T20:56:39.118Z,102261.58
2018-06-30T20:59:09.171Z,102252.73
2018-06-30T21:01:38.661Z,102258.06
2018-06-30T21:04:08.321Z,102255.24
2018-06-30T21:06:38.437Z,102257.66
2018-06-30T21:09:10.331Z,102254.58
2018-06-30T21:11:40.551Z,102263.63
2018-06-30T21:14:10.944Z,102261.44
2018-06-30T21:16:40.549Z,102259.70
2018-06-30T21:19:10.760Z,102262.84
2018-06-30T21:21:40.388Z,102261.10
2018-06-30T21:24:10.054Z,102263.84
2018-06-30T21:26:40.068Z,102268.28
2018-06-30T21:29:09.682Z,102265.55
2018-06-30T21:31:39.363Z,102265.95
2018-06-30T21:34:09.076Z,102267.33
2018-06-30T21:36:39.095Z,102267.29
2018-06-30T21:39:11.945Z,102268.28
2018-06-30T21:41:41.872Z,102268.36
2018-06-30T21:44:11.550Z,102266.64
2018-06-30T21:46:40.974Z,102279.50
2018-06-30T21:49:10.675Z,102275.02
2018-06-30T21:51:40.392Z,102272.80
2018-06-30T21:54:11.121Z,102281.72
2018-06-30T21:56:41.228Z,102284.42
2018-06-30T21:59:11.139Z,102288.08
2018-06-30T22:01:41.757Z,102288.59
2018-06-30T22:04:11.874Z,102293.50
2018-06-30T22:06:41.470Z,102290.42
2018-06-30T22:09:11.695Z,102293.72
2018-06-30T22:11:41.908Z,102292.00
2018-06-30T22:14:11.556Z,102294.25
2018-06-30T22:16:41.066Z,102290.78
2018-06-30T22:19:10.855Z,102290.36
2018-06-30T22:21:40.213Z,102289.95
2018-06-30T22:24:09.681Z,102296.58
2018-06-30T22:26:39.280Z,102295.69
2018-06-30T22:29:08.754Z,102293.97
2018-06-30T22:31:38.125Z,102298.85
2018-06-30T22:34:07.917Z,102302.90
2018-06-30T22:36:37.395Z,102305.67
2018-06-30T22:39:09.938Z,102310.13
2018-06-30T22:41:40.055Z,102316.34
2018-06-30T22:44:10.024Z,102313.76
2018-06-30T22:46:39.786Z,102309.31
2018-06-30T22:49:09.286Z,102313.28
2018-06-30T22:51:39.620Z,102323.89
2018-06-30T22:54:09.350Z,102321.87
2018-06-30T22:56:39.049Z,102324.16
2018-06-30T22:59:08.540Z,102329.91
2018-06-30T23:01:38.768Z,102323.72
2018-06-30T23:04:08.346Z,102324.63
2018-06-30T23:06:38.290Z,102326.45
2018-06-30T23:09:10.373Z,102324.77
2018-06-30T23:11:40.237Z,102336.31
2018-06-30T23:14:09.828Z,102333.73
2018-06-30T23:16:39.969Z,102338.14
2018-06-30T23:19:09.498Z,102333.77
2018-06-30T23:21:38.713Z,102341.42
2018-06-30T23:24:08.470Z,102333.87
2018-06-30T23:26:37.879Z,102343.29
2018-06-30T23:29:07.344Z,102340.12
2018-06-30T23:31:37.276Z,102343.61
2018-06-30T23:34:06.805Z,102339.63
2018-06-30T23:36:36.478Z,102341.84
2018-06-30T23:39:08.835Z,102344.53
2018-06-30T23:41:38.804Z,102348.95
2018-06-30T23:44:08.611Z,102342.81
2018-06-30T23:46:38.528Z,102345.02
2018-06-30T23:49:08.286Z,102344.57
2018-06-30T23:51:37.802Z,102350.81
2018-06-30T23:54:07.299Z,102347.70
2018-06-30T23:56:36.985Z,102346.81
2018-06-30T23:59:06.423Z,102349.93
